createdAt,value
2022-08-16T00:00:22.598Z,25.10
2022-08-16T00:02:52.281Z,25.10
2022-08-16T00:05:22.623Z,25.10
2022-08-16T00:07:55.216Z,25.10
2022-08-16T00:10:26.535Z,25.40
2022-08-16T00:13:00.724Z,25.00
2022-08-16T00:15:51.955Z,25.00
2022-08-16T00:18:29.759Z,24.90
2022-08-16T00:21:00.819Z,24.90
2022-08-16T00:23:34.673Z,24.90
2022-08-16T00:26:33.752Z,24.90
2022-08-16T00:28:57.966Z,24.80
2022-08-16T00:31:27.027Z,25.10
2022-08-16T00:34:18.458Z,25.10
2022-08-16T00:36:47.415Z,24.80
2022-08-16T00:39:17.592Z,25.20
2022-08-16T00:41:47.785Z,25.10
2022-08-16T00:44:17.851Z,25.10
2022-08-16T00:47:05.955Z,24.70
2022-08-16T00:49:39.588Z,24.90
2022-08-16T00:52:29.874Z,24.60
2022-08-16T00:54:59.990Z,25.00
2022-08-16T00:57:59.815Z,24.60
2022-08-16T01:00:28.655Z,24.60
2022-08-16T01:02:58.376Z,24.60
2022-08-16T01:05:26.160Z,24.60
2022-08-16T01:07:55.194Z,24.50
2022-08-16T01:10:32.781Z,24.90
2022-08-16T01:13:06.413Z,24.60
2022-08-16T01:15:37.821Z,24.50
2022-08-16T01:18:39.474Z,24.90
2022-08-16T01:21:33.796Z,24.80
2022-08-16T01:24:53.314Z,24.40
2022-08-16T01:27:11.057Z,24.40
2022-08-16T01:29:57.738Z,24.40
2022-08-16T01:32:33.603Z,23.90
2022-08-16T01:35:07.880Z,24.30
2022-08-16T01:37:42.727Z,24.30
2022-08-16T01:40:13.456Z,24.30
2022-08-16T01:42:47.719Z,24.70
2022-08-16T01:45:19.723Z,24.30
2022-08-16T01:47:51.025Z,24.30
2022-08-16T01:51:05.189Z,23.80
2022-08-16T01:53:12.395Z,24.50
2022-08-16T01:56:03.703Z,24.20
2022-08-16T01:58:34.150Z,24.10
2022-08-16T02:01:07.947Z,24.50
2022-08-16T02:03:36.514Z,24.00
2022-08-16T02:06:08.328Z,24.00
2022-08-16T02:08:35.910Z,24.00
2022-08-16T02:11:06.777Z,24.40
2022-08-16T02:13:41.927Z,24.00
2022-08-16T02:16:18.359Z,24.40
2022-08-16T02:18:47.670Z,24.00
2022-08-16T02:21:31.319Z,24.00
2022-08-16T02:23:59.840Z,24.50
2022-08-16T02:26:27.677Z,24.00
2022-08-16T02:29:01.968Z,24.30
2022-08-16T02:32:02.653Z,24.40
2022-08-16T02:34:19.960Z,23.90
2022-08-16T02:37:00.415Z,23.90
2022-08-16T02:39:30.216Z,24.30
2022-08-16T02:41:58.663Z,24.30
2022-08-16T02:44:28.457Z,24.20
2022-08-16T02:46:57.225Z,24.10
2022-08-16T02:49:58.314Z,23.80
2022-08-16T02:52:29.201Z,23.70
2022-08-16T02:55:04.191Z,24.10
2022-08-16T02:57:31.751Z,23.70
2022-08-16T03:00:31.785Z,23.80
2022-08-16T03:02:55.690Z,24.10
2022-08-16T03:05:25.031Z,23.60
2022-08-16T03:07:52.752Z,23.60
2022-08-16T03:10:20.403Z,24.00
2022-08-16T03:13:03.329Z,23.50
2022-08-16T03:15:31.987Z,23.60
2022-08-16T03:18:01.751Z,23.50
2022-08-16T03:20:32.442Z,23.00
2022-08-16T03:23:06.004Z,23.50
2022-08-16T03:25:44.092Z,23.80
2022-08-16T03:28:13.342Z,23.50
2022-08-16T03:30:45.271Z,23.50
2022-08-16T03:33:16.378Z,23.80
2022-08-16T03:35:56.985Z,23.40
2022-08-16T03:38:32.988Z,23.40
2022-08-16T03:41:17.123Z,23.40
2022-08-16T03:43:54.710Z,23.30
2022-08-16T03:46:44.997Z,23.70
2022-08-16T03:49:15.049Z,23.30
2022-08-16T03:51:46.541Z,23.80
2022-08-16T03:54:21.873Z,23.30
2022-08-16T03:56:56.797Z,23.50
2022-08-16T03:59:29.320Z,23.30
2022-08-16T04:02:04.218Z,23.20
2022-08-16T04:04:42.652Z,22.70
2022-08-16T04:07:11.319Z,23.20
2022-08-16T04:09:42.138Z,23.10
2022-08-16T04:12:53.274Z,23.10
2022-08-16T04:15:02.398Z,23.00
2022-08-16T04:17:32.819Z,23.00
2022-08-16T04:20:08.688Z,23.30
2022-08-16T04:22:56.068Z,23.00
2022-08-16T04:25:24.708Z,23.00
2022-08-16T04:27:56.015Z,22.90
2022-08-16T04:30:31.883Z,23.30
2022-08-16T04:33:04.368Z,23.00
2022-08-16T04:35:34.618Z,23.30
2022-08-16T04:38:11.002Z,22.90
2022-08-16T04:40:50.225Z,22.90
2022-08-16T04:43:18.801Z,22.80
2022-08-16T04:45:47.305Z,22.80
2022-08-16T04:48:33.892Z,23.20
2022-08-16T04:51:11.710Z,22.80
2022-08-16T04:53:44.101Z,22.70
2022-08-16T04:56:11.989Z,22.80
2022-08-16T05:01:58.495Z,22.70
2022-08-16T05:04:19.842Z,22.70
2022-08-16T05:06:54.556Z,22.70
2022-08-16T05:09:49.545Z,23.40
2022-08-16T05:12:33.411Z,23.20
2022-08-16T05:15:03.087Z,22.80
2022-08-16T05:17:35.736Z,22.70
2022-08-16T05:20:45.120Z,22.80
2022-08-16T05:22:58.610Z,22.80
2022-08-16T05:25:40.760Z,23.30
2022-08-16T05:28:13.883Z,22.80
2022-08-16T05:30:50.415Z,23.50
2022-08-16T05:33:22.531Z,23.00
2022-08-16T05:35:53.699Z,23.00
2022-08-16T05:38:32.427Z,23.00
2022-08-16T05:41:07.373Z,23.10
2022-08-16T05:43:42.923Z,23.10
2022-08-16T05:46:30.484Z,23.20
2022-08-16T05:49:22.242Z,23.20
2022-08-16T05:51:55.449Z,23.40
2022-08-16T05:54:24.920Z,23.40
2022-08-16T05:56:56.620Z,23.40
2022-08-16T05:59:26.968Z,23.50
2022-08-16T06:01:56.300Z,24.10
2022-08-16T06:04:35.108Z,24.00
2022-08-16T06:07:09.143Z,24.30
2022-08-16T06:09:59.805Z,23.90
2022-08-16T06:12:30.057Z,24.00
2022-08-16T06:15:11.937Z,24.10
2022-08-16T06:17:44.594Z,24.10
2022-08-16T06:20:25.634Z,24.90
2022-08-16T06:23:17.489Z,25.10
2022-08-16T06:26:07.455Z,24.50
2022-08-16T06:28:39.484Z,24.60
2022-08-16T06:31:14.550Z,25.10
2022-08-16T06:33:46.062Z,25.20
2022-08-16T06:36:16.907Z,24.90
2022-08-16T06:38:57.027Z,25.10
2022-08-16T06:42:08.128Z,25.40
2022-08-16T06:45:16.971Z,25.50
2022-08-16T06:48:32.942Z,25.80
2022-08-16T06:51:05.597Z,26.20
2022-08-16T06:53:36.386Z,26.40
2022-08-16T06:56:13.873Z,26.70
2022-08-16T06:59:04.146Z,26.90
2022-08-16T07:01:46.229Z,27.20
2022-08-16T07:04:32.750Z,27.50
2022-08-16T07:07:14.387Z,28.30
2022-08-16T07:09:43.481Z,28.40
2022-08-16T07:12:22.306Z,28.40
2022-08-16T07:15:55.349Z,29.10
2022-08-16T07:19:01.684Z,29.20
2022-08-16T07:25:04.565Z,29.40
2022-08-16T07:27:59.915Z,29.70
2022-08-16T07:31:04.978Z,30.40
2022-08-16T07:33:53.678Z,30.40
2022-08-16T07:36:32.059Z,30.80
2022-08-16T07:39:13.821Z,31.00
2022-08-16T07:41:42.119Z,31.50
2022-08-16T07:44:24.204Z,31.60
2022-08-16T07:47:33.631Z,31.80
2022-08-16T07:50:55.838Z,32.20
2022-08-16T07:53:22.120Z,32.50
2022-08-16T07:56:04.438Z,32.90
2022-08-16T07:59:17.613Z,33.00
2022-08-16T08:01:55.567Z,33.40
2022-08-16T08:05:46.498Z,33.60
2022-08-16T08:09:00.602Z,33.80
2022-08-16T08:12:43.705Z,34.20
2022-08-16T08:19:07.841Z,34.70
2022-08-16T08:25:00.934Z,35.30
2022-08-16T08:27:39.161Z,35.50
2022-08-16T08:30:50.538Z,36.00
2022-08-16T08:34:12.713Z,36.00
2022-08-16T08:37:13.208Z,36.30
2022-08-16T08:40:20.068Z,36.60
2022-08-16T08:43:31.496Z,36.80
2022-08-16T08:46:21.306Z,36.90
2022-08-16T08:49:00.183Z,37.10
2022-08-16T08:51:38.258Z,37.80
2022-08-16T08:54:26.870Z,37.50
2022-08-16T08:57:05.840Z,37.80
2022-08-16T08:59:55.092Z,38.00
2022-08-16T09:02:24.380Z,38.30
2022-08-16T09:04:56.246Z,38.30
2022-08-16T09:07:25.806Z,38.60
2022-08-16T09:10:06.115Z,39.10
2022-08-16T09:12:37.303Z,38.90
2022-08-16T09:15:11.479Z,39.00
2022-08-16T09:17:53.465Z,39.20
2022-08-16T09:20:27.157Z,39.40
2022-08-16T09:22:56.215Z,39.60
2022-08-16T09:25:33.945Z,39.70
2022-08-16T09:28:09.349Z,39.80
2022-08-16T09:30:44.986Z,39.90
2022-08-16T09:33:18.435Z,40.00
2022-08-16T09:35:53.180Z,40.20
2022-08-16T09:38:32.152Z,39.80
2022-08-16T09:41:02.611Z,39.50
2022-08-16T09:43:58.522Z,39.60
2022-08-16T09:46:33.326Z,39.50
2022-08-16T09:49:08.508Z,39.30
2022-08-16T09:51:37.511Z,39.10
2022-08-16T09:54:09.813Z,38.90
2022-08-16T09:56:39.392Z,38.80
2022-08-16T09:59:19.324Z,38.80
2022-08-16T10:01:48.229Z,38.30
2022-08-16T10:04:33.124Z,38.10
2022-08-16T10:07:13.105Z,37.70
2022-08-16T10:09:53.645Z,37.40
2022-08-16T10:12:46.731Z,37.10
2022-08-16T10:15:24.113Z,36.70
2022-08-16T10:18:00.396Z,36.80
2022-08-16T10:20:34.567Z,36.30
2022-08-16T10:23:09.817Z,36.50
2022-08-16T10:27:16.444Z,35.90
2022-08-16T10:28:32.591Z,35.80
2022-08-16T10:31:11.728Z,35.50
2022-08-16T10:33:40.582Z,35.50
2022-08-16T10:36:08.931Z,35.20
2022-08-16T10:38:39.379Z,35.10
2022-08-16T10:41:10.942Z,34.90
2022-08-16T10:43:43.850Z,34.90
2022-08-16T10:46:39.437Z,34.90
2022-08-16T10:49:05.139Z,34.90
2022-08-16T10:51:34.648Z,34.80
2022-08-16T10:54:29.295Z,34.70
2022-08-16T10:57:04.521Z,34.50
2022-08-16T10:59:44.096Z,34.50
2022-08-16T11:02:59.320Z,33.80
2022-08-16T11:13:57.247Z,34.10
2022-08-16T11:15:55.747Z,34.10
2022-08-16T11:19:03.962Z,34.00
2022-08-16T11:21:29.120Z,34.10
2022-08-16T11:23:59.865Z,34.00
2022-08-16T11:27:18.131Z,34.00
2022-08-16T11:29:22.050Z,34.40
2022-08-16T11:31:53.934Z,34.00
2022-08-16T11:35:05.949Z,33.90
2022-08-16T11:38:23.365Z,33.90
2022-08-16T11:40:52.876Z,33.80
2022-08-16T11:44:20.371Z,34.00
2022-08-16T11:47:20.346Z,33.70
2022-08-16T11:50:06.737Z,33.70
2022-08-16T11:52:49.352Z,33.60
2022-08-16T11:55:59.645Z,34.20
2022-08-16T11:59:18.593Z,33.00
2022-08-16T12:02:37.547Z,33.50
2022-08-16T12:06:04.066Z,33.50
2022-08-16T12:08:39.739Z,33.60
2022-08-16T12:11:09.741Z,33.90
2022-08-16T12:13:37.405Z,33.70
2022-08-16T12:16:09.117Z,33.60
2022-08-16T12:18:38.073Z,33.50
2022-08-16T12:21:07.724Z,33.50
2022-08-16T12:23:37.788Z,33.50
2022-08-16T12:26:06.344Z,33.40
2022-08-16T12:28:54.965Z,33.40
2022-08-16T12:31:26.023Z,33.40
2022-08-16T12:33:57.711Z,33.40
2022-08-16T12:36:30.017Z,33.40
2022-08-16T12:38:57.706Z,33.60
2022-08-16T12:41:26.191Z,33.30
2022-08-16T12:43:57.071Z,33.30
2022-08-16T12:46:28.839Z,33.20
2022-08-16T12:49:00.625Z,33.40
2022-08-16T12:51:59.024Z,33.20
2022-08-16T12:54:23.378Z,33.20
2022-08-16T12:56:50.855Z,33.50
2022-08-16T12:59:20.967Z,33.10
2022-08-16T13:01:50.611Z,33.10
2022-08-16T13:04:28.062Z,33.10
2022-08-16T13:09:42.167Z,33.20
2022-08-16T13:12:23.789Z,33.10
2022-08-16T13:14:53.535Z,33.00
2022-08-16T13:17:26.285Z,33.00
2022-08-16T13:20:11.214Z,32.90
2022-08-16T13:22:43.790Z,32.90
2022-08-16T13:25:21.233Z,32.90
2022-08-16T13:28:02.214Z,32.90
2022-08-16T13:30:44.727Z,32.80
2022-08-16T13:33:18.913Z,32.80
2022-08-16T13:35:55.944Z,32.90
2022-08-16T13:38:31.442Z,32.90
2022-08-16T13:41:08.458Z,32.90
2022-08-16T13:43:37.985Z,32.90
2022-08-16T13:46:06.611Z,32.90
2022-08-16T13:48:43.032Z,32.80
2022-08-16T13:51:17.837Z,32.90
2022-08-16T13:53:54.450Z,32.90
2022-08-16T13:56:38.078Z,32.80
2022-08-16T13:59:20.132Z,32.80
2022-08-16T14:01:56.021Z,32.90
2022-08-16T14:04:27.090Z,32.80
2022-08-16T14:06:59.300Z,32.80
2022-08-16T14:09:28.551Z,32.80
2022-08-16T14:11:57.644Z,32.90
2022-08-16T14:14:29.922Z,32.90
2022-08-16T14:16:59.796Z,32.80
2022-08-16T14:19:29.593Z,32.80
2022-08-16T14:22:13.543Z,32.80
2022-08-16T14:24:47.013Z,32.90
2022-08-16T14:27:16.968Z,32.80
2022-08-16T14:29:45.788Z,32.80
2022-08-16T14:32:33.510Z,32.80
2022-08-16T14:35:11.585Z,32.80
2022-08-16T14:37:39.728Z,32.90
2022-08-16T14:40:19.533Z,32.80
2022-08-16T14:42:49.393Z,32.80
2022-08-16T14:45:22.683Z,32.80
2022-08-16T14:47:50.168Z,32.80
2022-08-16T14:50:21.351Z,32.80
2022-08-16T14:53:05.267Z,32.70
2022-08-16T14:55:35.477Z,32.70
2022-08-16T14:58:05.398Z,32.70
2022-08-16T15:00:36.672Z,32.70
2022-08-16T15:03:09.616Z,32.70
2022-08-16T15:05:39.953Z,32.70
2022-08-16T15:08:10.137Z,32.80
2022-08-16T15:10:39.003Z,32.80
2022-08-16T15:13:11.967Z,32.90
2022-08-16T15:15:40.279Z,33.10
2022-08-16T15:18:11.984Z,32.80
2022-08-16T15:20:41.448Z,33.00
2022-08-16T15:23:10.339Z,32.80
2022-08-16T15:25:42.984Z,32.90
2022-08-16T15:28:31.040Z,32.80
2022-08-16T15:31:06.561Z,32.90
2022-08-16T15:33:42.638Z,32.80
2022-08-16T15:36:17.606Z,32.90
2022-08-16T15:39:02.295Z,32.90
2022-08-16T15:41:44.226Z,32.80
2022-08-16T15:44:17.974Z,32.70
2022-08-16T15:46:55.028Z,32.70
2022-08-16T15:49:37.003Z,32.60
2022-08-16T15:52:18.515Z,32.60
2022-08-16T15:54:53.596Z,32.60
2022-08-16T15:57:25.438Z,32.60
2022-08-16T15:59:56.474Z,32.60
2022-08-16T16:02:39.475Z,32.60
2022-08-16T16:05:10.216Z,32.60
2022-08-16T16:07:41.038Z,32.60
2022-08-16T16:10:29.222Z,32.60
2022-08-16T16:13:03.747Z,32.60
2022-08-16T16:15:40.804Z,32.60
2022-08-16T16:18:09.941Z,32.60
2022-08-16T16:20:43.599Z,32.90
2022-08-16T16:23:11.395Z,32.60
2022-08-16T16:25:43.581Z,32.60
2022-08-16T16:29:05.766Z,32.60
2022-08-16T16:31:09.274Z,32.60
2022-08-16T16:33:40.865Z,32.50
2022-08-16T16:36:14.948Z,32.60
2022-08-16T16:38:45.970Z,32.50
2022-08-16T16:41:17.059Z,32.60
2022-08-16T16:43:46.693Z,32.60
2022-08-16T16:46:43.075Z,32.50
2022-08-16T16:49:08.992Z,32.50
2022-08-16T16:51:44.577Z,32.50
2022-08-16T16:54:27.984Z,32.50
2022-08-16T16:56:57.995Z,32.40
2022-08-16T16:59:28.160Z,32.70
2022-08-16T17:02:38.171Z,32.30
2022-08-16T17:04:45.335Z,32.30
2022-08-16T17:07:12.793Z,32.20
2022-08-16T17:09:41.448Z,32.30
2022-08-16T17:12:22.635Z,32.30
2022-08-16T17:14:55.004Z,32.20
2022-08-16T17:17:23.305Z,32.20
2022-08-16T17:19:51.280Z,32.20
2022-08-16T17:22:21.584Z,32.20
2022-08-16T17:24:52.481Z,32.20
2022-08-16T17:27:33.655Z,32.20
2022-08-16T17:30:14.911Z,32.20
2022-08-16T17:32:57.988Z,32.20
2022-08-16T17:35:34.670Z,32.20
2022-08-16T17:38:08.117Z,32.20
2022-08-16T17:40:47.778Z,32.20
2022-08-16T17:43:33.547Z,32.20
2022-08-16T17:46:02.512Z,32.30
2022-08-16T17:48:35.466Z,32.30
2022-08-16T17:51:04.509Z,32.30
2022-08-16T17:53:33.234Z,32.30
2022-08-16T17:56:01.059Z,32.30
2022-08-16T17:58:28.549Z,32.30
2022-08-16T18:00:59.684Z,32.20
2022-08-16T18:04:02.441Z,32.20
2022-08-16T18:06:19.236Z,32.20
2022-08-16T18:08:48.593Z,31.80
2022-08-16T18:11:18.856Z,32.20
2022-08-16T18:13:47.754Z,32.10
2022-08-16T18:16:16.636Z,32.20
2022-08-16T18:18:44.574Z,32.10
2022-08-16T18:21:32.788Z,32.10
2022-08-16T18:24:00.626Z,32.00
2022-08-16T18:26:28.487Z,32.00
2022-08-16T18:28:55.912Z,32.00
2022-08-16T18:31:24.911Z,32.00
2022-08-16T18:33:55.591Z,32.00
2022-08-16T18:36:24.281Z,32.10
2022-08-16T18:38:52.876Z,31.90
2022-08-16T18:41:24.087Z,32.40
2022-08-16T18:44:22.813Z,31.80
2022-08-16T18:46:46.222Z,31.70
2022-08-16T18:49:19.567Z,31.70
2022-08-16T18:51:47.215Z,32.40
2022-08-16T18:54:20.453Z,31.70
2022-08-16T18:56:56.099Z,31.70
2022-08-16T18:59:27.833Z,32.00
2022-08-16T19:02:00.049Z,31.60
2022-08-16T19:04:47.426Z,31.60
2022-08-16T19:07:30.716Z,31.80
2022-08-16T19:10:00.803Z,31.40
2022-08-16T19:12:38.457Z,31.30
2022-08-16T19:15:17.847Z,31.30
2022-08-16T19:17:46.730Z,31.20
2022-08-16T19:20:16.243Z,31.10
2022-08-16T19:25:47.062Z,30.90
2022-08-16T19:28:49.099Z,30.80
2022-08-16T19:31:13.991Z,30.70
2022-08-16T19:33:53.395Z,30.60
2022-08-16T19:36:34.995Z,30.50
2022-08-16T19:39:15.184Z,30.50
2022-08-16T19:41:46.120Z,30.40
2022-08-16T19:44:20.022Z,29.90
2022-08-16T19:46:49.100Z,30.60
2022-08-16T19:49:17.175Z,30.20
2022-08-16T19:51:46.454Z,30.10
2022-08-16T19:54:13.974Z,30.30
2022-08-16T19:56:41.650Z,30.30
2022-08-16T19:59:20.634Z,29.80
2022-08-16T20:01:53.717Z,29.80
2022-08-16T20:04:23.645Z,29.70
2022-08-16T20:06:57.242Z,29.70
2022-08-16T20:09:25.193Z,29.60
2022-08-16T20:11:53.843Z,29.50
2022-08-16T20:14:25.360Z,29.90
2022-08-16T20:16:58.812Z,29.40
2022-08-16T20:19:28.455Z,29.40
2022-08-16T20:21:57.676Z,29.30
2022-08-16T20:24:35.893Z,29.60
2022-08-16T20:27:07.562Z,29.10
2022-08-16T20:29:37.370Z,29.10
2022-08-16T20:32:12.879Z,29.00
2022-08-16T20:34:45.958Z,28.90
2022-08-16T20:44:42.304Z,28.70
2022-08-16T20:47:16.248Z,28.60
2022-08-16T20:49:47.814Z,28.60
2022-08-16T20:53:29.201Z,28.90
2022-08-16T20:56:17.463Z,28.40
2022-08-16T20:58:56.843Z,28.40
2022-08-16T21:01:34.781Z,28.30
2022-08-16T21:04:34.256Z,28.20
2022-08-16T21:07:01.724Z,28.10
2022-08-16T21:09:33.512Z,28.10
2022-08-16T21:12:04.694Z,28.00
2022-08-16T21:14:34.430Z,28.00
2022-08-16T21:17:03.141Z,27.90
2022-08-16T21:19:33.877Z,27.90
2022-08-16T21:22:23.705Z,27.80
2022-08-16T21:24:53.975Z,27.80
2022-08-16T21:27:22.414Z,27.70
2022-08-16T21:30:25.061Z,27.70
2022-08-16T21:33:13.972Z,27.60
2022-08-16T21:35:44.157Z,27.60
2022-08-16T21:38:29.209Z,27.60
2022-08-16T21:40:59.310Z,27.60
2022-08-16T21:43:31.586Z,28.00
2022-08-16T21:46:03.793Z,28.00
2022-08-16T21:48:34.943Z,27.40
2022-08-16T21:51:06.549Z,27.30
2022-08-16T21:53:34.578Z,27.20
2022-08-16T21:56:02.073Z,27.10
2022-08-16T21:58:30.722Z,27.10
2022-08-16T22:00:59.166Z,27.10
2022-08-16T22:03:26.562Z,27.60
2022-08-16T22:06:12.027Z,27.00
2022-08-16T22:08:50.623Z,27.00
2022-08-16T22:11:23.260Z,27.20
2022-08-16T22:13:58.218Z,26.80
2022-08-16T22:16:39.959Z,26.70
2022-08-16T22:19:10.574Z,27.10
2022-08-16T22:21:38.216Z,26.60
2022-08-16T22:24:06.334Z,26.60
2022-08-16T22:26:43.058Z,26.50
2022-08-16T22:29:13.658Z,26.50
2022-08-16T22:31:41.700Z,26.40
2022-08-16T22:34:09.187Z,26.50
2022-08-16T22:36:36.874Z,26.30
2022-08-16T22:39:10.397Z,26.30
2022-08-16T22:41:39.109Z,26.30
2022-08-16T22:44:07.642Z,26.20
2022-08-16T22:46:36.679Z,26.20
2022-08-16T22:49:06.560Z,26.20
2022-08-16T22:51:35.815Z,26.40
2022-08-16T22:54:45.755Z,26.10
2022-08-16T22:56:52.029Z,26.10
2022-08-16T22:59:19.409Z,26.00
2022-08-16T23:01:46.944Z,26.00
2022-08-16T23:04:14.476Z,26.20
2022-08-16T23:06:41.855Z,26.30
2022-08-16T23:09:09.362Z,26.30
2022-08-16T23:11:36.749Z,26.10
2022-08-16T23:14:22.534Z,26.30
2022-08-16T23:16:50.032Z,25.70
2022-08-16T23:19:20.636Z,26.30
2022-08-16T23:23:21.289Z,25.70
2022-08-16T23:26:46.565Z,25.70
2022-08-16T23:29:24.580Z,25.70
2022-08-16T23:31:56.903Z,26.00
2022-08-16T23:34:26.646Z,25.60
2022-08-16T23:36:54.364Z,25.60
2022-08-16T23:39:22.734Z,25.80
2022-08-16T23:41:50.265Z,25.60
2022-08-16T23:44:57.029Z,25.80
2022-08-16T23:47:06.285Z,25.50
2022-08-16T23:50:01.700Z,25.50
2022-08-16T23:52:53.209Z,25.40
2022-08-16T23:55:09.765Z,25.30
2022-08-16T23:57:37.496Z,25.40
